createdAt,value
2023-02-08T00:00:59.794Z,102910.88
2023-02-08T00:03:28.048Z,102914.44
2023-02-08T00:05:55.345Z,102917.13
2023-02-08T00:08:22.606Z,102907.97
2023-02-08T00:10:51.376Z,102909.22
2023-02-08T00:13:18.699Z,102910.00
2023-02-08T00:15:47.165Z,102916.59
2023-02-08T00:18:14.814Z,102913.81
2023-02-08T00:20:42.850Z,102906.53
2023-02-08T00:23:10.194Z,102913.09
2023-02-08T00:25:37.832Z,102915.16
2023-02-08T00:28:09.173Z,102905.66
2023-02-08T00:30:36.764Z,102904.75
2023-02-08T00:33:04.522Z,102916.88
2023-02-08T00:35:31.846Z,102913.63
2023-02-08T00:37:59.135Z,102921.16
2023-02-08T00:40:26.955Z,102911.63
2023-02-08T00:42:55.432Z,102911.31
2023-02-08T00:45:24.299Z,102915.81
2023-02-08T00:47:51.565Z,102903.09
2023-02-08T00:50:18.819Z,102910.88
2023-02-08T00:52:46.098Z,102897.03
2023-02-08T00:55:13.542Z,102892.47
2023-02-08T00:57:40.966Z,102890.44
2023-02-08T01:00:09.485Z,102898.28
2023-02-08T01:02:38.313Z,102902.19
2023-02-08T01:05:05.902Z,102899.78
2023-02-08T01:07:33.400Z,102889.72
2023-02-08T01:10:01.133Z,102888.53
2023-02-08T01:12:28.378Z,102893.09
2023-02-08T01:14:55.624Z,102891.69
2023-02-08T01:17:22.914Z,102891.56
2023-02-08T01:19:51.510Z,102891.06
2023-02-08T01:22:18.795Z,102883.84
2023-02-08T01:24:46.046Z,102879.75
2023-02-08T01:27:13.304Z,102882.59
2023-02-08T01:29:40.541Z,102878.75
2023-02-08T01:32:08.221Z,102873.19
2023-02-08T01:34:35.498Z,102879.88
2023-02-08T01:37:04.108Z,102878.75
2023-02-08T01:39:31.368Z,102882.19
2023-02-08T01:41:58.652Z,102876.84
2023-02-08T01:44:45.105Z,102885.97
2023-02-08T01:47:12.546Z,102871.44
2023-02-08T01:49:39.973Z,102874.75
2023-02-08T01:52:10.482Z,102872.50
2023-02-08T01:54:40.428Z,102877.28
2023-02-08T01:57:08.178Z,102868.84
2023-02-08T01:59:39.301Z,102862.31
2023-02-08T02:02:10.458Z,102859.44
2023-02-08T02:04:37.943Z,102871.44
2023-02-08T02:07:05.496Z,102868.69
2023-02-08T02:09:37.665Z,102864.16
2023-02-08T02:12:06.040Z,102866.41
2023-02-08T02:14:33.335Z,102865.78
2023-02-08T02:17:03.542Z,102857.97
2023-02-08T02:19:37.045Z,102866.59
2023-02-08T02:22:08.415Z,102852.53
2023-02-08T02:24:48.679Z,102859.97
2023-02-08T02:27:28.287Z,102855.56
2023-02-08T02:30:20.221Z,102860.22
2023-02-08T02:33:01.808Z,102859.13
2023-02-08T02:35:36.647Z,102855.25
2023-02-08T02:38:10.879Z,102858.81
2023-02-08T02:40:43.612Z,102856.81
2023-02-08T02:43:31.922Z,102857.59
2023-02-08T02:46:03.868Z,102858.72
2023-02-08T02:48:39.207Z,102860.06
2023-02-08T02:51:09.750Z,102857.50
2023-02-08T02:53:42.880Z,102856.91
2023-02-08T02:56:13.210Z,102859.44
2023-02-08T02:58:41.274Z,102847.38
2023-02-08T03:01:08.606Z,102850.34
2023-02-08T03:03:37.284Z,102851.63
2023-02-08T03:06:06.032Z,102849.09
2023-02-08T03:08:43.302Z,102841.63
2023-02-08T03:11:16.445Z,102848.69
2023-02-08T03:13:53.612Z,102857.09
2023-02-08T03:16:25.135Z,102851.31
2023-02-08T03:19:02.206Z,102849.25
2023-02-08T03:21:36.158Z,102862.63
2023-02-08T03:24:10.208Z,102858.09
2023-02-08T03:26:39.562Z,102850.00
2023-02-08T03:29:10.390Z,102862.84
2023-02-08T03:31:40.879Z,102859.50
2023-02-08T03:34:13.056Z,102861.50
2023-02-08T03:36:43.382Z,102867.09
2023-02-08T03:39:13.304Z,102868.50
2023-02-08T03:41:43.571Z,102879.44
2023-02-08T03:44:14.157Z,102878.06
2023-02-08T03:46:43.956Z,102877.22
2023-02-08T03:49:15.293Z,102883.50
2023-02-08T03:51:43.961Z,102885.63
2023-02-08T03:54:13.796Z,102890.38
2023-02-08T03:56:44.051Z,102890.25
2023-02-08T03:59:14.375Z,102892.00
2023-02-08T04:01:44.101Z,102893.25
2023-02-08T04:04:14.004Z,102896.03
2023-02-08T04:06:41.289Z,102897.03
2023-02-08T04:09:08.705Z,102895.88
2023-02-08T04:11:36.071Z,102893.84
2023-02-08T04:14:03.364Z,102894.72
2023-02-08T04:16:30.626Z,102894.78
2023-02-08T04:18:57.902Z,102895.09
2023-02-08T04:21:27.356Z,102895.66
2023-02-08T04:23:54.619Z,102888.09
2023-02-08T04:26:21.900Z,102898.00
2023-02-08T04:28:49.225Z,102900.28
2023-02-08T04:31:16.707Z,102903.59
2023-02-08T04:33:44.006Z,102894.69
2023-02-08T04:36:11.775Z,102887.22
2023-02-08T04:38:40.349Z,102892.28
2023-02-08T04:41:07.650Z,102889.41
2023-02-08T04:43:35.641Z,102890.16
2023-02-08T04:46:02.960Z,102889.34
2023-02-08T04:48:30.322Z,102875.53
2023-02-08T04:50:58.218Z,102882.13
2023-02-08T04:53:25.924Z,102881.81
2023-02-08T04:55:54.502Z,102873.69
2023-02-08T04:58:21.781Z,102874.84
2023-02-08T05:00:49.163Z,102871.19
2023-02-08T05:03:16.441Z,102873.41
2023-02-08T05:05:43.698Z,102873.09
2023-02-08T05:08:11.003Z,102870.69
2023-02-08T05:10:38.458Z,102872.53
2023-02-08T05:13:07.186Z,102866.41
2023-02-08T05:15:35.401Z,102866.41
2023-02-08T05:18:02.664Z,102859.97
2023-02-08T05:20:30.668Z,102870.97
2023-02-08T05:22:57.930Z,102869.09
2023-02-08T05:25:25.194Z,102872.38
2023-02-08T05:27:53.543Z,102873.41
2023-02-08T05:30:22.281Z,102865.03
2023-02-08T05:32:50.257Z,102874.00
2023-02-08T05:35:17.539Z,102874.69
2023-02-08T05:37:44.802Z,102880.75
2023-02-08T05:40:13.122Z,102879.31
2023-02-08T05:42:42.307Z,102873.72
2023-02-08T05:45:09.908Z,102867.69
2023-02-08T05:47:38.585Z,102874.63
2023-02-08T05:50:06.284Z,102874.81
2023-02-08T05:52:33.550Z,102875.81
2023-02-08T05:55:00.796Z,102878.31
2023-02-08T05:57:29.652Z,102879.28
2023-02-08T05:59:58.415Z,102869.69
2023-02-08T06:02:25.726Z,102878.09
2023-02-08T06:04:54.336Z,102878.53
2023-02-08T06:07:21.596Z,102874.63
2023-02-08T06:09:48.850Z,102877.41
2023-02-08T06:12:16.113Z,102872.44
2023-02-08T06:14:43.449Z,102878.78
2023-02-08T06:17:10.708Z,102888.47
2023-02-08T06:19:37.976Z,102886.09
2023-02-08T06:22:06.572Z,102884.50
2023-02-08T06:24:34.129Z,102875.28
2023-02-08T06:27:01.398Z,102884.13
2023-02-08T06:29:28.720Z,102886.09
2023-02-08T06:31:56.072Z,102883.63
2023-02-08T06:34:23.643Z,102898.72
2023-02-08T06:36:50.969Z,102896.09
2023-02-08T06:39:19.571Z,102903.59
2023-02-08T06:41:46.835Z,102897.00
2023-02-08T06:44:14.117Z,102896.13
2023-02-08T06:46:41.393Z,102886.97
2023-02-08T06:49:08.717Z,102896.00
2023-02-08T06:51:35.989Z,102895.03
2023-02-08T06:54:03.288Z,102901.47
2023-02-08T06:56:31.870Z,102906.09
2023-02-08T06:58:59.206Z,102913.91
2023-02-08T07:01:26.525Z,102903.81
2023-02-08T07:03:54.151Z,102908.38
2023-02-08T07:06:21.452Z,102910.34
2023-02-08T07:08:48.861Z,102910.41
2023-02-08T07:11:17.213Z,102914.56
2023-02-08T07:13:47.574Z,102917.78
2023-02-08T07:16:15.197Z,102911.97
2023-02-08T07:18:42.490Z,102921.91
2023-02-08T07:21:11.323Z,102919.34
2023-02-08T07:23:38.605Z,102915.34
2023-02-08T07:26:06.999Z,102922.50
2023-02-08T07:28:34.339Z,102911.47
2023-02-08T07:31:05.370Z,102916.78
2023-02-08T07:33:32.744Z,102910.31
2023-02-08T07:36:00.084Z,102910.41
2023-02-08T07:38:27.367Z,102915.06
2023-02-08T07:41:00.703Z,102913.47
2023-02-08T07:43:27.978Z,102918.09
2023-02-08T07:45:55.328Z,102911.94
2023-02-08T07:48:23.976Z,102910.44
2023-02-08T07:50:51.263Z,102905.72
2023-02-08T07:53:18.530Z,102903.16
2023-02-08T07:55:46.393Z,102905.09
2023-02-08T07:58:14.158Z,102905.28
2023-02-08T08:00:41.721Z,102898.41
2023-02-08T08:03:09.254Z,102912.78
2023-02-08T08:05:40.690Z,102913.03
2023-02-08T08:08:07.962Z,102919.41
2023-02-08T08:10:35.257Z,102925.44
2023-02-08T08:13:02.717Z,102920.34
2023-02-08T08:15:30.446Z,102927.34
2023-02-08T08:17:58.101Z,102926.97
2023-02-08T08:20:25.515Z,102921.22
2023-02-08T08:22:54.117Z,102924.97
2023-02-08T08:25:21.506Z,102923.31
2023-02-08T08:27:49.144Z,102921.75
2023-02-08T08:30:17.807Z,102929.75
2023-02-08T08:32:45.170Z,102928.25
2023-02-08T08:35:12.491Z,102920.47
2023-02-08T08:37:39.780Z,102919.66
2023-02-08T08:40:09.374Z,102932.59
2023-02-08T08:42:37.195Z,102924.41
2023-02-08T08:45:04.664Z,102927.06
2023-02-08T08:47:32.219Z,102925.34
2023-02-08T08:49:59.524Z,102926.50
2023-02-08T08:52:26.811Z,102929.28
2023-02-08T08:54:54.070Z,102925.88
2023-02-08T08:57:22.712Z,102932.03
2023-02-08T08:59:49.976Z,102927.97
2023-02-08T09:02:17.286Z,102933.59
2023-02-08T09:04:44.639Z,102931.63
2023-02-08T09:07:11.953Z,102931.03
2023-02-08T09:09:40.805Z,102931.50
2023-02-08T09:12:08.599Z,102930.88
2023-02-08T09:14:37.205Z,102926.31
2023-02-08T09:17:05.690Z,102926.53
2023-02-08T09:19:32.971Z,102918.81
2023-02-08T09:22:00.635Z,102926.72
2023-02-08T09:24:28.043Z,102921.41
2023-02-08T09:26:55.592Z,102927.31
2023-02-08T09:29:22.864Z,102934.50
2023-02-08T09:31:51.530Z,102938.03
2023-02-08T09:34:18.891Z,102933.81
2023-02-08T09:36:46.316Z,102934.16
2023-02-08T09:39:15.356Z,102939.72
2023-02-08T09:42:09.639Z,102939.75
2023-02-08T09:44:42.123Z,102942.72
2023-02-08T09:47:13.543Z,102943.88
2023-02-08T09:49:44.231Z,102951.78
2023-02-08T09:52:13.842Z,102946.56
2023-02-08T09:54:44.265Z,102941.06
2023-02-08T09:57:27.440Z,102941.25
2023-02-08T09:59:56.629Z,102946.44
2023-02-08T10:02:27.190Z,102952.81
2023-02-08T10:04:59.345Z,102959.03
2023-02-08T10:07:27.469Z,102949.56
2023-02-08T10:09:54.977Z,102943.31
2023-02-08T10:12:29.712Z,102953.25
2023-02-08T10:15:03.153Z,102934.94
2023-02-08T10:17:46.234Z,102928.75
2023-02-08T10:20:24.053Z,102939.22
2023-02-08T10:22:58.169Z,102938.44
2023-02-08T10:25:42.312Z,102935.56
2023-02-08T10:28:25.894Z,102944.53
2023-02-08T10:30:57.016Z,102942.66
2023-02-08T10:33:28.136Z,102935.88
2023-02-08T10:35:56.088Z,102925.47
2023-02-08T10:38:37.237Z,102929.06
2023-02-08T10:41:08.767Z,102903.53
2023-02-08T10:43:41.230Z,102917.41
2023-02-08T10:46:13.060Z,102909.50
2023-02-08T10:48:47.413Z,102901.72
2023-02-08T10:51:16.731Z,102906.03
2023-02-08T10:53:44.274Z,102905.28
2023-02-08T10:56:23.045Z,102896.59
2023-02-08T10:58:50.453Z,102895.72
2023-02-08T11:01:17.822Z,102891.16
2023-02-08T11:04:00.118Z,102875.47
2023-02-08T11:06:28.757Z,102870.44
2023-02-08T11:08:58.649Z,102862.41
2023-02-08T11:11:29.674Z,102867.81
2023-02-08T11:14:06.382Z,102861.44
2023-02-08T11:16:33.711Z,102862.28
2023-02-08T11:19:01.960Z,102864.16
2023-02-08T11:21:33.572Z,102861.59
2023-02-08T11:24:02.538Z,102863.28
2023-02-08T11:26:33.912Z,102855.44
2023-02-08T11:29:03.006Z,102854.66
2023-02-08T11:31:30.795Z,102859.09
2023-02-08T11:34:02.452Z,102866.13
2023-02-08T11:36:32.939Z,102861.88
2023-02-08T11:39:02.397Z,102860.88
2023-02-08T11:41:29.786Z,102867.91
2023-02-08T11:44:00.338Z,102852.97
2023-02-08T11:46:29.382Z,102844.19
2023-02-08T11:48:57.051Z,102854.06
2023-02-08T11:51:27.020Z,102845.25
2023-02-08T11:53:56.956Z,102852.97
2023-02-08T11:56:25.247Z,102849.53
2023-02-08T11:59:00.744Z,102854.06
2023-02-08T12:01:29.900Z,102847.81
2023-02-08T12:03:58.865Z,102853.97
2023-02-08T12:06:40.600Z,102845.13
2023-02-08T12:09:15.609Z,102845.97
2023-02-08T12:11:44.218Z,102859.25
2023-02-08T12:14:26.410Z,102857.47
2023-02-08T12:17:02.439Z,102852.31
2023-02-08T12:19:46.212Z,102854.13
2023-02-08T12:22:16.900Z,102863.03
2023-02-08T12:24:49.996Z,102847.06
2023-02-08T12:27:31.761Z,102838.22
2023-02-08T12:30:04.740Z,102831.13
2023-02-08T12:32:38.362Z,102826.78
2023-02-08T12:35:24.155Z,102827.47
2023-02-08T12:38:17.938Z,102830.13
2023-02-08T12:40:50.768Z,102833.72
2023-02-08T12:43:24.952Z,102825.78
2023-02-08T12:46:13.503Z,102814.13
2023-02-08T12:48:45.670Z,102820.31
2023-02-08T12:51:18.904Z,102825.69
2023-02-08T12:53:47.623Z,102826.56
2023-02-08T12:56:18.294Z,102821.28
2023-02-08T12:58:46.743Z,102822.22
2023-02-08T13:01:16.213Z,102823.91
2023-02-08T13:03:46.090Z,102825.72
2023-02-08T13:06:16.202Z,102818.63
2023-02-08T13:08:47.026Z,102823.91
2023-02-08T13:11:21.822Z,102807.13
2023-02-08T13:13:54.403Z,102811.59
2023-02-08T13:16:23.406Z,102811.56
2023-02-08T13:18:53.817Z,102798.28
2023-02-08T13:21:23.509Z,102797.38
2023-02-08T13:23:53.015Z,102793.94
2023-02-08T13:26:26.273Z,102791.28
2023-02-08T13:28:54.777Z,102776.34
2023-02-08T13:31:23.965Z,102779.06
2023-02-08T13:34:01.309Z,102777.28
2023-02-08T13:36:31.315Z,102776.34
2023-02-08T13:38:59.678Z,102765.78
2023-02-08T13:41:29.526Z,102753.34
2023-02-08T13:43:58.984Z,102764.00
2023-02-08T13:46:28.243Z,102762.19
2023-02-08T13:48:57.180Z,102758.72
2023-02-08T13:51:51.379Z,102763.13
2023-02-08T13:54:18.667Z,102770.19
2023-02-08T13:56:48.169Z,102757.78
2023-02-08T13:59:26.589Z,102764.06
2023-02-08T14:02:13.214Z,102758.75
2023-02-08T14:04:41.312Z,102755.16
2023-02-08T14:07:23.312Z,102752.47
2023-02-08T14:09:59.681Z,102763.06
2023-02-08T14:12:34.745Z,102754.28
2023-02-08T14:15:06.055Z,102756.97
2023-02-08T14:17:33.798Z,102756.09
2023-02-08T14:20:02.767Z,102761.34
2023-02-08T14:22:37.473Z,102756.97
2023-02-08T14:25:06.121Z,102756.03
2023-02-08T14:27:37.775Z,102750.69
2023-02-08T14:30:07.389Z,102753.38
2023-02-08T14:32:36.634Z,102756.00
2023-02-08T14:35:05.537Z,102755.06
2023-02-08T14:37:33.841Z,102758.53
2023-02-08T14:40:21.358Z,102761.22
2023-02-08T14:42:58.548Z,102751.44
2023-02-08T14:45:29.679Z,102753.25
2023-02-08T14:47:58.714Z,102756.75
2023-02-08T14:50:29.091Z,102758.47
2023-02-08T14:53:06.391Z,102755.66
2023-02-08T14:55:38.492Z,102756.59
2023-02-08T14:58:09.066Z,102744.25
2023-02-08T15:00:38.655Z,102739.00
2023-02-08T15:03:06.946Z,102748.59
2023-02-08T15:05:36.709Z,102744.13
2023-02-08T15:08:04.237Z,102749.41
2023-02-08T15:10:33.119Z,102750.25
2023-02-08T15:13:03.650Z,102752.94
2023-02-08T15:15:33.698Z,102746.75
2023-02-08T15:18:02.289Z,102747.63
2023-02-08T15:20:30.837Z,102743.22
2023-02-08T15:22:59.546Z,102744.97
2023-02-08T15:25:28.125Z,102739.66
2023-02-08T15:27:57.393Z,102735.22
2023-02-08T15:30:33.061Z,102731.63
2023-02-08T15:33:02.174Z,102730.78
2023-02-08T15:35:30.010Z,102722.84
2023-02-08T15:37:58.083Z,102721.91
2023-02-08T15:40:27.127Z,102711.22
2023-02-08T15:42:54.455Z,102706.88
2023-02-08T15:45:24.612Z,102714.72
2023-02-08T15:47:52.913Z,102707.75
2023-02-08T15:50:23.172Z,102708.88
2023-02-08T15:52:53.004Z,102698.34
2023-02-08T15:55:20.403Z,102698.47
2023-02-08T15:57:49.148Z,102699.44
2023-02-08T16:00:17.571Z,102699.47
2023-02-08T16:02:46.647Z,102701.25
2023-02-08T16:05:20.472Z,102692.41
2023-02-08T16:07:49.322Z,102699.47
2023-02-08T16:10:24.918Z,102691.56
2023-02-08T16:12:53.469Z,102687.81
2023-02-08T16:15:37.489Z,102689.69
2023-02-08T16:18:04.942Z,102684.34
2023-02-08T16:20:34.065Z,102690.56
2023-02-08T16:23:04.385Z,102695.00
2023-02-08T16:25:34.811Z,102689.59
2023-02-08T16:28:02.235Z,102707.91
2023-02-08T16:30:29.730Z,102703.56
2023-02-08T16:32:57.292Z,102708.75
2023-02-08T16:35:26.037Z,102703.56
2023-02-08T16:37:58.927Z,102694.94
2023-02-08T16:40:48.600Z,102685.13
2023-02-08T16:43:18.053Z,102686.81
2023-02-08T16:45:45.329Z,102692.88
2023-02-08T16:48:31.324Z,102688.53
2023-02-08T16:50:59.248Z,102681.41
2023-02-08T16:53:40.381Z,102684.09
2023-02-08T16:56:10.069Z,102678.69
2023-02-08T16:58:38.735Z,102677.00
2023-02-08T17:01:06.623Z,102682.13
2023-02-08T17:03:39.588Z,102675.16
2023-02-08T17:06:07.280Z,102673.44
2023-02-08T17:08:35.807Z,102670.72
2023-02-08T17:11:03.081Z,102679.47
2023-02-08T17:13:30.371Z,102676.81
2023-02-08T17:15:59.977Z,102680.16
2023-02-08T17:18:27.367Z,102684.50
2023-02-08T17:20:59.485Z,102682.88
2023-02-08T17:23:26.850Z,102685.88
2023-02-08T17:25:54.184Z,102687.41
2023-02-08T17:28:22.030Z,102684.56
2023-02-08T17:30:50.244Z,102682.72
2023-02-08T17:33:19.140Z,102679.03
2023-02-08T17:35:47.288Z,102670.09
2023-02-08T17:38:15.452Z,102677.31
2023-02-08T17:40:44.539Z,102669.72
2023-02-08T17:43:12.831Z,102667.09
2023-02-08T17:45:41.520Z,102669.69
2023-02-08T17:48:09.000Z,102662.81
2023-02-08T17:50:37.794Z,102663.50
2023-02-08T17:53:05.064Z,102656.41
2023-02-08T17:55:32.474Z,102655.63
2023-02-08T17:57:59.780Z,102660.00
2023-02-08T18:00:27.062Z,102651.13
2023-02-08T18:02:55.611Z,102653.78
2023-02-08T18:05:24.180Z,102651.84
2023-02-08T18:07:53.020Z,102649.00
2023-02-08T18:10:20.584Z,102646.56
2023-02-08T18:12:48.214Z,102655.31
2023-02-08T18:15:19.430Z,102657.19
2023-02-08T18:17:47.641Z,102644.56
2023-02-08T18:20:16.190Z,102651.22
2023-02-08T18:22:44.283Z,102646.91
2023-02-08T18:25:13.527Z,102644.34
2023-02-08T18:27:40.799Z,102652.91
2023-02-08T18:30:08.531Z,102660.09
2023-02-08T18:32:35.858Z,102657.41
2023-02-08T18:35:04.355Z,102655.59
2023-02-08T18:37:31.979Z,102654.63
2023-02-08T18:39:59.524Z,102651.00
2023-02-08T18:42:28.198Z,102651.00
2023-02-08T18:44:55.590Z,102660.31
2023-02-08T18:47:22.890Z,102652.19
2023-02-08T18:49:53.368Z,102665.13
2023-02-08T18:52:20.847Z,102665.84
2023-02-08T18:54:48.202Z,102658.00
2023-02-08T18:57:15.741Z,102652.00
2023-02-08T18:59:44.366Z,102645.22
2023-02-08T19:02:20.555Z,102640.22
2023-02-08T19:04:48.422Z,102634.06
2023-02-08T19:07:16.175Z,102626.97
2023-02-08T19:09:43.903Z,102623.31
2023-02-08T19:12:15.240Z,102619.72
2023-02-08T19:14:44.108Z,102617.06
2023-02-08T19:17:14.283Z,102616.25
2023-02-08T19:19:42.047Z,102608.56
2023-02-08T19:22:09.374Z,102603.66
2023-02-08T19:24:36.675Z,102602.00
2023-02-08T19:27:03.975Z,102593.34
2023-02-08T19:29:33.191Z,102581.03
2023-02-08T19:32:01.837Z,102575.66
2023-02-08T19:34:29.159Z,102575.16
2023-02-08T19:36:58.463Z,102568.13
2023-02-08T19:39:27.386Z,102571.50
2023-02-08T19:41:55.395Z,102566.22
2023-02-08T19:44:23.136Z,102556.56
2023-02-08T19:46:54.504Z,102553.22
2023-02-08T19:49:25.607Z,102547.06
2023-02-08T19:51:52.957Z,102543.69
2023-02-08T19:54:20.772Z,102540.09
2023-02-08T19:56:50.368Z,102535.69
2023-02-08T19:59:19.516Z,102548.78
2023-02-08T20:01:47.400Z,102546.19
2023-02-08T20:04:14.875Z,102544.66
2023-02-08T20:06:44.856Z,102542.94
2023-02-08T20:09:12.902Z,102538.56
2023-02-08T20:11:55.795Z,102535.97
2023-02-08T20:14:24.239Z,102530.72
2023-02-08T20:16:51.605Z,102528.94
2023-02-08T20:19:18.926Z,102522.84
2023-02-08T20:21:51.494Z,102519.19
2023-02-08T20:24:19.257Z,102518.41
2023-02-08T20:26:47.094Z,102509.63
2023-02-08T20:29:14.984Z,102508.72
2023-02-08T20:31:43.430Z,102504.34
2023-02-08T20:34:13.071Z,102509.47
2023-02-08T20:36:47.701Z,102503.31
2023-02-08T20:39:23.180Z,102502.50
2023-02-08T20:41:50.479Z,102508.38
2023-02-08T20:44:18.636Z,102499.81
2023-02-08T20:46:46.535Z,102497.13
2023-02-08T20:49:15.205Z,102492.59
2023-02-08T20:51:43.270Z,102486.53
2023-02-08T20:54:11.001Z,102496.28
2023-02-08T20:56:39.847Z,102490.88
2023-02-08T20:59:08.532Z,102483.00
2023-02-08T21:01:36.912Z,102482.00
2023-02-08T21:04:04.778Z,102474.91
2023-02-08T21:06:33.741Z,102471.53
2023-02-08T21:09:01.659Z,102472.50
2023-02-08T21:11:29.934Z,102467.13
2023-02-08T21:13:59.033Z,102462.75
2023-02-08T21:16:26.387Z,102466.28
2023-02-08T21:18:54.261Z,102460.22
2023-02-08T21:21:22.080Z,102456.75
2023-02-08T21:23:49.776Z,102452.47
2023-02-08T21:26:18.453Z,102448.88
2023-02-08T21:28:46.281Z,102443.78
2023-02-08T21:31:16.583Z,102437.56
2023-02-08T21:33:44.286Z,102435.72
2023-02-08T21:36:14.197Z,102430.63
2023-02-08T21:38:41.569Z,102423.63
2023-02-08T21:41:09.466Z,102420.16
2023-02-08T21:43:37.251Z,102417.50
2023-02-08T21:46:05.026Z,102414.16
2023-02-08T21:48:53.758Z,102406.19
2023-02-08T21:51:38.761Z,102405.31
2023-02-08T21:54:24.397Z,102396.63
2023-02-08T21:56:51.916Z,102405.44
2023-02-08T21:59:19.161Z,102388.63
2023-02-08T22:01:46.462Z,102389.59
2023-02-08T22:04:15.091Z,102383.44
2023-02-08T22:06:42.368Z,102373.81
2023-02-08T22:09:09.647Z,102381.81
2023-02-08T22:11:36.920Z,102364.16
2023-02-08T22:14:04.206Z,102370.19
2023-02-08T22:16:35.391Z,102379.88
2023-02-08T22:19:02.661Z,102365.03
2023-02-08T22:21:31.257Z,102374.72
2023-02-08T22:23:58.558Z,102373.84
2023-02-08T22:26:25.837Z,102380.03
2023-02-08T22:28:53.547Z,102378.28
2023-02-08T22:31:21.178Z,102373.91
2023-02-08T22:33:48.535Z,102387.84
2023-02-08T22:36:15.806Z,102371.97
2023-02-08T22:38:44.425Z,102370.31
2023-02-08T22:41:12.120Z,102367.69
2023-02-08T22:43:39.437Z,102357.06
2023-02-08T22:46:07.133Z,102355.34
2023-02-08T22:48:34.666Z,102355.31
2023-02-08T22:51:05.653Z,102360.53
2023-02-08T22:53:32.922Z,102355.25
2023-02-08T22:56:01.838Z,102357.88
2023-02-08T22:58:29.186Z,102353.44
2023-02-08T23:00:56.458Z,102344.72
2023-02-08T23:03:23.820Z,102346.50
2023-02-08T23:05:51.668Z,102335.88
2023-02-08T23:08:20.087Z,102334.09
2023-02-08T23:10:47.639Z,102328.88
2023-02-08T23:13:16.245Z,102337.53
2023-02-08T23:15:44.801Z,102322.69
2023-02-08T23:18:12.127Z,102322.75
2023-02-08T23:20:39.972Z,102328.88
2023-02-08T23:23:07.633Z,102322.69
2023-02-08T23:25:34.942Z,102314.69
2023-02-08T23:28:02.333Z,102318.22
2023-02-08T23:30:31.048Z,102321.72
2023-02-08T23:32:58.316Z,102321.72
2023-02-08T23:35:25.604Z,102330.38
2023-02-08T23:37:52.935Z,102322.41
2023-02-08T23:40:20.327Z,102310.28
2023-02-08T23:42:47.623Z,102305.84
2023-02-08T23:45:14.918Z,102302.38
2023-02-08T23:47:43.522Z,102314.69
2023-02-08T23:50:11.253Z,102310.34
2023-02-08T23:52:38.546Z,102302.38
2023-02-08T23:55:06.744Z,102311.19
2023-02-08T23:57:34.651Z,102308.53
